Time;durP1;ratioP1;P1;durP2;ratioP2;P2;SDS_P1;SDS_P2;PMS_P1;PMS_P2;Temp;Humidity;BMP_temperature;BMP_pressure;BME280_temperature;BME280_humidity;BME280_pressure;Samples;Min_cycle;Max_cycle;Signal;HPM_P1;HPM_P2
2021/05/22 00:01:41;;;;;;;6.70;1.63;;;;;;;;;;5025127;28;20210;-68
2021/05/22 00:04:06;;;;;;;5.60;1.00;;;;;;;;;;5019612;28;20186;-70
2021/05/22 00:06:32;;;;;;;5.65;1.38;;;;;;;;;;5025451;28;20189;-67
2021/05/22 00:08:57;;;;;;;5.80;1.23;;;;;;;;;;5025756;28;23029;-70
2021/05/22 00:11:22;;;;;;;5.75;1.25;;;;;;;;;;5017893;28;20193;-67
2021/05/22 00:13:48;;;;;;;6.65;1.27;;;;;;;;;;5030681;28;20613;-68
2021/05/22 00:16:13;;;;;;;6.75;1.55;;;;;;;;;;5022038;28;20722;-68
2021/05/22 00:18:39;;;;;;;5.88;1.02;;;;;;;;;;5030898;28;20225;-69
2021/05/22 00:21:04;;;;;;;4.90;1.20;;;;;;;;;;5021512;28;20182;-69
2021/05/22 00:23:30;;;;;;;7.10;1.33;;;;;;;;;;5030100;28;20188;-69
2021/05/22 00:25:55;;;;;;;7.70;1.30;;;;;;;;;;5021704;28;20255;-70
2021/05/22 00:28:20;;;;;;;5.18;1.40;;;;;;;;;;5030350;28;20188;-68
2021/05/22 00:30:46;;;;;;;7.40;1.80;;;;;;;;;;5020679;28;20194;-71
2021/05/22 00:33:11;;;;;;;10.00;1.67;;;;;;;;;;5030983;28;20197;-67
2021/05/22 00:35:37;;;;;;;7.53;1.67;;;;;;;;;;5030236;28;20179;-68
2021/05/22 00:38:02;;;;;;;7.55;1.38;;;;;;;;;;5021610;28;20783;-68
2021/05/22 00:40:27;;;;;;;5.35;1.25;;;;;;;;;;5030296;28;20221;-68
2021/05/22 00:42:53;;;;;;;4.75;1.35;;;;;;;;;;5022920;28;20277;-70
2021/05/22 00:45:21;;;;;;;3.90;1.02;;;;;;;;;;5029650;28;20532;-67
2021/05/22 00:47:51;;;;;;;4.70;1.10;;;;;;;;;;5025581;28;20229;-68
2021/05/22 00:50:29;;;;;;;6.13;1.58;;;;;;;;;;5032307;28;20187;-71
2021/05/22 00:52:56;;;;;;;7.80;1.17;;;;;;;;;;5021918;28;20530;-68
2021/05/22 00:55:23;;;;;;;7.20;1.30;;;;;;;;;;5029730;28;20221;-68
2021/05/22 00:57:48;;;;;;;4.72;0.90;;;;;;;;;;5022104;28;20285;-66
2021/05/22 01:00:16;;;;;;;4.38;1.05;;;;;;;;;;5029437;28;20236;-66
2021/05/22 01:02:43;;;;;;;6.78;1.48;;;;;;;;;;5022707;28;20228;-68
2021/05/22 01:05:09;;;;;;;5.07;1.15;;;;;;;;;;5027798;28;20202;-66
2021/05/22 01:07:34;;;;;;;5.25;1.10;;;;;;;;;;5021891;28;20228;-67
2021/05/22 01:10:01;;;;;;;9.60;1.35;;;;;;;;;;5028695;28;20919;-68
2021/05/22 01:12:31;;;;;;;8.43;1.38;;;;;;;;;;5029897;28;20240;-68
2021/05/22 01:15:10;;;;;;;7.85;1.42;;;;;;;;;;5023262;28;20834;-68
2021/05/22 01:17:38;;;;;;;3.80;1.15;;;;;;;;;;5030635;28;20233;-66
2021/05/22 01:20:25;;;;;;;7.47;1.20;;;;;;;;;;5021921;28;20193;-67
2021/05/22 01:22:55;;;;;;;7.95;1.48;;;;;;;;;;5030220;28;20193;-68
2021/05/22 01:25:41;;;;;;;8.38;1.33;;;;;;;;;;5020544;28;20673;-66
2021/05/22 01:28:10;;;;;;;6.10;1.60;;;;;;;;;;5027702;28;20185;-70
2021/05/22 01:30:36;;;;;;;3.60;1.10;;;;;;;;;;5021957;28;20193;-69
2021/05/22 01:33:03;;;;;;;8.25;1.00;;;;;;;;;;5028130;28;20525;-67
2021/05/22 01:35:29;;;;;;;5.53;1.17;;;;;;;;;;5021540;28;20681;-66
2021/05/22 01:37:54;;;;;;;8.25;1.60;;;;;;;;;;5029208;28;20350;-68
2021/05/22 01:40:20;;;;;;;6.72;0.88;;;;;;;;;;5020915;28;20650;-69
2021/05/22 01:42:46;;;;;;;7.53;1.20;;;;;;;;;;5027617;28;20544;-69
2021/05/22 01:45:20;;;;;;;2.80;1.38;;;;;;;;;;5019015;28;20213;-70
2021/05/22 01:47:47;;;;;;;6.95;1.27;;;;;;;;;;5028265;28;20293;-67
2021/05/22 01:50:15;;;;;;;6.45;1.40;;;;;;;;;;5020362;28;20202;-68
2021/05/22 01:52:44;;;;;;;8.23;1.23;;;;;;;;;;5030648;28;20189;-67
2021/05/22 01:55:11;;;;;;;5.95;1.10;;;;;;;;;;5019146;28;20197;-68
2021/05/22 01:57:38;;;;;;;7.00;1.10;;;;;;;;;;5027821;28;20209;-67
2021/05/22 02:00:04;;;;;;;5.22;1.00;;;;;;;;;;5025989;28;20259;-66
2021/05/22 02:02:30;;;;;;;4.78;1.15;;;;;;;;;;5023473;28;20206;-69
2021/05/22 02:04:59;;;;;;;7.88;1.23;;;;;;;;;;5026811;28;20509;-70
2021/05/22 02:07:26;;;;;;;5.05;1.40;;;;;;;;;;5022730;28;20194;-66
2021/05/22 02:09:54;;;;;;;5.20;1.40;;;;;;;;;;5027903;28;20332;-67
2021/05/22 02:12:22;;;;;;;9.55;1.02;;;;;;;;;;5019556;28;20190;-67
2021/05/22 02:14:49;;;;;;;8.30;1.27;;;;;;;;;;5030053;28;20593;-67
2021/05/22 02:17:18;;;;;;;6.20;1.15;;;;;;;;;;5019747;28;20617;-66
2021/05/22 02:19:47;;;;;;;5.45;1.20;;;;;;;;;;5028375;28;20196;-69
2021/05/22 02:22:18;;;;;;;10.93;1.90;;;;;;;;;;5022026;28;20248;-69
2021/05/22 02:24:44;;;;;;;8.02;1.08;;;;;;;;;;5028683;28;20185;-65
2021/05/22 02:27:11;;;;;;;9.93;1.50;;;;;;;;;;5018793;28;20228;-67
2021/05/22 02:29:40;;;;;;;4.40;1.10;;;;;;;;;;5028593;28;20641;-67
2021/05/22 02:32:06;;;;;;;8.68;1.00;;;;;;;;;;5020457;28;20713;-67
2021/05/22 02:34:37;;;;;;;5.47;0.95;;;;;;;;;;5027388;28;20190;-67
2021/05/22 02:37:03;;;;;;;6.75;1.45;;;;;;;;;;5020924;28;20190;-68
2021/05/22 02:39:29;;;;;;;4.18;0.80;;;;;;;;;;5029656;28;20221;-68
2021/05/22 02:41:58;;;;;;;8.57;1.25;;;;;;;;;;5029019;28;20194;-67
2021/05/22 02:44:25;;;;;;;6.72;1.20;;;;;;;;;;5018970;28;20197;-66
2021/05/22 02:46:51;;;;;;;7.90;1.30;;;;;;;;;;5027775;28;20177;-67
2021/05/22 02:49:20;;;;;;;7.20;1.13;;;;;;;;;;5018203;28;20230;-69
2021/05/22 02:51:48;;;;;;;6.68;1.08;;;;;;;;;;5028216;28;20216;-67
2021/05/22 02:54:14;;;;;;;4.25;1.17;;;;;;;;;;5016561;28;20205;-68
2021/05/22 02:56:41;;;;;;;8.95;1.40;;;;;;;;;;5029185;28;20183;-69
2021/05/22 02:59:08;;;;;;;4.70;0.73;;;;;;;;;;5017084;28;20213;-68
2021/05/22 03:01:34;;;;;;;4.82;0.80;;;;;;;;;;5027056;28;20272;-69
2021/05/22 03:04:00;;;;;;;6.63;1.00;;;;;;;;;;5019986;28;20643;-68
2021/05/22 03:06:26;;;;;;;4.13;0.90;;;;;;;;;;5026603;28;20189;-68
2021/05/22 03:08:51;;;;;;;3.58;0.90;;;;;;;;;;5017301;28;20209;-68
2021/05/22 03:11:19;;;;;;;2.85;0.90;;;;;;;;;;5024711;28;20186;-68
2021/05/22 03:13:45;;;;;;;5.72;0.70;;;;;;;;;;5024726;28;20198;-68
2021/05/22 03:16:11;;;;;;;4.25;0.90;;;;;;;;;;5016325;28;20220;-70
2021/05/22 03:18:37;;;;;;;5.10;0.88;;;;;;;;;;5027226;28;20224;-69
2021/05/22 03:21:02;;;;;;;7.28;1.17;;;;;;;;;;5018781;28;20197;-69
2021/05/22 03:23:28;;;;;;;7.95;0.90;;;;;;;;;;5023764;28;20181;-69
2021/05/22 03:25:53;;;;;;;6.50;1.00;;;;;;;;;;5018036;28;20305;-68
2021/05/22 03:28:22;;;;;;;6.60;0.75;;;;;;;;;;5025216;28;20568;-70
2021/05/22 03:30:48;;;;;;;3.70;0.88;;;;;;;;;;5018400;28;20227;-70
2021/05/22 03:33:13;;;;;;;3.53;0.80;;;;;;;;;;5027099;28;20190;-68
2021/05/22 03:35:39;;;;;;;5.97;1.02;;;;;;;;;;5017519;28;20206;-67
2021/05/22 03:38:04;;;;;;;4.43;1.30;;;;;;;;;;5025491;28;20233;-66
2021/05/22 03:40:30;;;;;;;5.07;1.20;;;;;;;;;;5022429;28;20198;-68
2021/05/22 03:42:55;;;;;;;3.80;0.80;;;;;;;;;;5024305;28;20191;-67
2021/05/22 03:45:20;;;;;;;3.08;0.70;;;;;;;;;;5025201;28;20181;-68
2021/05/22 03:47:46;;;;;;;7.30;1.00;;;;;;;;;;5017594;28;20217;-69
2021/05/22 03:50:12;;;;;;;6.35;1.30;;;;;;;;;;5024906;28;20178;-67
2021/05/22 03:52:38;;;;;;;4.30;0.77;;;;;;;;;;5021405;28;20310;-67
2021/05/22 03:55:06;;;;;;;3.15;0.55;;;;;;;;;;5026782;28;20177;-67
2021/05/22 03:57:31;;;;;;;3.97;1.02;;;;;;;;;;5017604;28;20561;-67
2021/05/22 03:59:56;;;;;;;6.88;0.88;;;;;;;;;;5024388;28;20200;-67
2021/05/22 04:02:22;;;;;;;4.30;0.98;;;;;;;;;;5015751;28;20222;-68
2021/05/22 04:04:47;;;;;;;5.13;0.98;;;;;;;;;;5023720;28;20224;-70
2021/05/22 04:07:12;;;;;;;4.68;0.90;;;;;;;;;;5014214;28;20554;-68
2021/05/22 04:09:38;;;;;;;4.22;0.63;;;;;;;;;;5027023;28;20223;-70
2021/05/22 04:12:03;;;;;;;3.35;0.88;;;;;;;;;;5021183;28;20189;-71
2021/05/22 04:14:29;;;;;;;11.55;1.70;;;;;;;;;;5020431;28;20268;-67
2021/05/22 04:16:54;;;;;;;6.38;1.00;;;;;;;;;;5022141;28;20932;-67
2021/05/22 04:19:19;;;;;;;4.40;0.93;;;;;;;;;;5014461;28;20229;-70
2021/05/22 04:21:45;;;;;;;4.97;1.00;;;;;;;;;;5024995;28;20194;-67
2021/05/22 04:24:10;;;;;;;6.80;0.90;;;;;;;;;;5012072;28;20189;-69
2021/05/22 04:26:36;;;;;;;3.67;0.80;;;;;;;;;;5026597;28;20207;-68
2021/05/22 04:29:01;;;;;;;11.10;1.30;;;;;;;;;;5017032;28;20244;-67
2021/05/22 04:31:26;;;;;;;5.85;0.90;;;;;;;;;;5027882;28;20185;-69
2021/05/22 04:33:52;;;;;;;2.83;0.68;;;;;;;;;;5020138;28;20760;-65
2021/05/22 04:36:17;;;;;;;3.20;0.85;;;;;;;;;;5023210;28;20291;-69
2021/05/22 04:38:42;;;;;;;5.22;1.00;;;;;;;;;;5016381;28;20260;-70
2021/05/22 04:41:08;;;;;;;3.80;0.60;;;;;;;;;;5024256;28;20210;-66
2021/05/22 04:43:33;;;;;;;4.57;0.85;;;;;;;;;;5025703;28;20189;-66
2021/05/22 04:45:58;;;;;;;5.85;1.20;;;;;;;;;;5018181;28;20752;-68
2021/05/22 04:48:24;;;;;;;5.47;0.70;;;;;;;;;;5023286;28;20242;-68
2021/05/22 04:50:49;;;;;;;3.45;0.73;;;;;;;;;;5017505;28;20322;-68
2021/05/22 04:53:15;;;;;;;2.60;0.73;;;;;;;;;;5023193;28;20194;-69
2021/05/22 04:55:40;;;;;;;3.10;0.93;;;;;;;;;;5015970;28;20581;-72
2021/05/22 04:58:05;;;;;;;7.15;0.65;;;;;;;;;;5023276;28;20250;-66
2021/05/22 05:00:31;;;;;;;2.92;0.75;;;;;;;;;;5020647;28;20213;-69
2021/05/22 05:02:56;;;;;;;3.90;0.90;;;;;;;;;;5029335;28;20208;-67
2021/05/22 05:05:23;;;;;;;5.43;0.90;;;;;;;;;;5017273;28;20198;-68
2021/05/22 05:07:48;;;;;;;5.22;0.88;;;;;;;;;;5027810;28;20216;-67
2021/05/22 05:10:15;;;;;;;5.28;0.90;;;;;;;;;;5025084;28;20185;-66
2021/05/22 05:12:40;;;;;;;6.78;1.05;;;;;;;;;;5026707;28;20204;-69
2021/05/22 05:15:07;;;;;;;5.93;1.30;;;;;;;;;;5027278;28;20178;-68
2021/05/22 05:17:33;;;;;;;6.40;1.20;;;;;;;;;;5019462;28;20196;-71
2021/05/22 05:19:58;;;;;;;5.53;1.00;;;;;;;;;;5028183;28;20593;-70
2021/05/22 05:22:26;;;;;;;2.45;0.95;;;;;;;;;;5019893;28;20241;-68
2021/05/22 05:24:51;;;;;;;7.60;1.30;;;;;;;;;;5027529;28;20268;-68
2021/05/22 05:27:17;;;;;;;7.78;2.08;;;;;;;;;;5020588;28;20716;-68
2021/05/22 05:29:42;;;;;;;4.72;1.27;;;;;;;;;;5027897;28;20180;-67
2021/05/22 05:32:08;;;;;;;5.70;1.30;;;;;;;;;;5022814;28;20653;-68
2021/05/22 05:34:34;;;;;;;4.32;1.02;;;;;;;;;;5028630;28;20553;-70
2021/05/22 05:36:59;;;;;;;4.55;1.00;;;;;;;;;;5016133;28;20189;-68
2021/05/22 05:39:25;;;;;;;8.23;1.30;;;;;;;;;;5027203;28;20217;-70
2021/05/22 05:41:50;;;;;;;6.00;1.23;;;;;;;;;;5027047;28;20190;-72
2021/05/22 05:44:15;;;;;;;4.82;1.40;;;;;;;;;;5020212;28;20194;-72
2021/05/22 05:46:41;;;;;;;6.30;1.30;;;;;;;;;;5027577;28;20181;-69
2021/05/22 05:49:06;;;;;;;7.75;1.25;;;;;;;;;;5019340;28;20563;-69
2021/05/22 05:51:32;;;;;;;6.35;1.00;;;;;;;;;;5027112;28;20232;-68
2021/05/22 05:53:58;;;;;;;5.80;1.08;;;;;;;;;;5019937;28;20610;-70
2021/05/22 05:56:23;;;;;;;7.93;1.70;;;;;;;;;;5028429;28;20297;-70
2021/05/22 05:58:48;;;;;;;7.03;1.50;;;;;;;;;;5018032;28;20490;-68
2021/05/22 06:01:14;;;;;;;8.65;1.17;;;;;;;;;;5028754;28;20209;-70
2021/05/22 06:03:40;;;;;;;7.47;1.30;;;;;;;;;;5020031;28;20236;-70
2021/05/22 06:06:05;;;;;;;6.90;1.30;;;;;;;;;;5027539;28;20201;-67
2021/05/22 06:08:31;;;;;;;5.45;1.35;;;;;;;;;;5023348;28;20565;-68
2021/05/22 06:10:57;;;;;;;5.22;1.17;;;;;;;;;;5027180;28;20189;-69
2021/05/22 06:13:29;;;;;;;9.02;1.60;;;;;;;;;;5028334;28;20189;-68
2021/05/22 06:16:11;;;;;;;9.40;1.60;;;;;;;;;;5020137;28;20225;-68
2021/05/22 06:18:38;;;;;;;9.27;1.25;;;;;;;;;;5027824;28;20209;-68
2021/05/22 06:21:05;;;;;;;7.65;1.38;;;;;;;;;;5019527;28;20224;-69
2021/05/22 06:23:31;;;;;;;8.23;1.48;;;;;;;;;;5029071;28;20194;-69
2021/05/22 06:25:58;;;;;;;8.45;1.27;;;;;;;;;;5020865;28;21950;-71
2021/05/22 06:28:24;;;;;;;9.63;1.58;;;;;;;;;;5025966;28;20502;-69
2021/05/22 06:30:49;;;;;;;5.70;1.20;;;;;;;;;;5020193;28;20186;-71
2021/05/22 06:33:15;;;;;;;7.28;1.33;;;;;;;;;;5028342;28;20558;-73
2021/05/22 06:35:41;;;;;;;7.70;1.35;;;;;;;;;;5020213;28;21359;-71
2021/05/22 06:38:07;;;;;;;7.97;1.35;;;;;;;;;;5028352;28;21309;-70
2021/05/22 06:40:32;;;;;;;8.82;1.60;;;;;;;;;;5018792;28;23485;-70
2021/05/22 06:42:58;;;;;;;8.82;1.90;;;;;;;;;;5027160;28;20205;-72
2021/05/22 06:45:25;;;;;;;8.02;1.90;;;;;;;;;;5021612;28;20240;-71
2021/05/22 06:47:51;;;;;;;8.18;1.80;;;;;;;;;;5025031;28;20319;-71
2021/05/22 06:50:17;;;;;;;11.15;1.80;;;;;;;;;;5028391;28;20193;-70
2021/05/22 06:52:43;;;;;;;6.60;1.70;;;;;;;;;;5022925;28;20189;-70
2021/05/22 06:55:08;;;;;;;6.55;1.65;;;;;;;;;;4331495;28;10000770;-71
2021/05/22 06:57:34;;;;;;;6.05;1.38;;;;;;;;;;5015100;28;20196;-72
2021/05/22 07:00:00;;;;;;;10.20;1.83;;;;;;;;;;5024634;28;20280;-71
2021/05/22 07:02:25;;;;;;;8.30;1.90;;;;;;;;;;5019519;28;20233;-71
2021/05/22 07:04:51;;;;;;;5.70;1.75;;;;;;;;;;5029995;28;20478;-71
2021/05/22 07:07:16;;;;;;;10.02;2.10;;;;;;;;;;5022168;28;20290;-71
2021/05/22 07:09:42;;;;;;;12.20;1.70;;;;;;;;;;5025105;28;20189;-68
2021/05/22 07:12:10;;;;;;;5.25;1.58;;;;;;;;;;5013295;28;20815;-70
2021/05/22 07:14:35;;;;;;;5.65;1.50;;;;;;;;;;5023742;28;20272;-69
2021/05/22 07:17:01;;;;;;;8.48;1.90;;;;;;;;;;5021611;28;20200;-72
2021/05/22 07:19:27;;;;;;;7.80;1.80;;;;;;;;;;5014608;28;20205;-72
2021/05/22 07:21:53;;;;;;;8.95;2.10;;;;;;;;;;5021208;28;20507;-71
2021/05/22 07:24:19;;;;;;;11.95;2.20;;;;;;;;;;5016227;28;20194;-70
2021/05/22 07:26:44;;;;;;;7.00;1.52;;;;;;;;;;5022201;28;20241;-70
2021/05/22 07:29:11;;;;;;;9.43;1.98;;;;;;;;;;5014715;28;20182;-71
2021/05/22 07:31:40;;;;;;;7.30;2.03;;;;;;;;;;5018645;28;20190;-71
2021/05/22 07:34:05;;;;;;;6.30;1.90;;;;;;;;;;5014118;28;20289;-73
2021/05/22 07:36:30;;;;;;;5.53;1.90;;;;;;;;;;5022176;28;20749;-72
2021/05/22 07:38:56;;;;;;;6.38;1.98;;;;;;;;;;5015796;28;20234;-71
2021/05/22 07:41:21;;;;;;;7.68;1.85;;;;;;;;;;5022606;28;20190;-73
2021/05/22 07:43:46;;;;;;;9.15;2.05;;;;;;;;;;5010847;28;20852;-72
2021/05/22 07:46:12;;;;;;;6.53;2.00;;;;;;;;;;5022240;28;20613;-68
2021/05/22 07:48:37;;;;;;;10.20;2.30;;;;;;;;;;5018766;28;20697;-70
2021/05/22 07:51:03;;;;;;;7.07;2.05;;;;;;;;;;5016199;28;20259;-70
2021/05/22 07:53:28;;;;;;;11.00;2.40;;;;;;;;;;5022120;28;20189;-70
2021/05/22 07:55:55;;;;;;;10.90;1.83;;;;;;;;;;5014224;28;20206;-71
2021/05/22 07:58:20;;;;;;;9.90;2.00;;;;;;;;;;5023032;28;20556;-72
2021/05/22 08:00:46;;;;;;;6.07;2.00;;;;;;;;;;5013132;28;20224;-70
2021/05/22 08:03:11;;;;;;;5.60;1.70;;;;;;;;;;5021826;28;20214;-71
2021/05/22 08:05:37;;;;;;;7.90;1.70;;;;;;;;;;5015391;28;20194;-71
2021/05/22 08:08:03;;;;;;;8.00;2.17;;;;;;;;;;5021175;28;20577;-71
2021/05/22 08:10:29;;;;;;;4.90;2.03;;;;;;;;;;5014753;28;20200;-71
2021/05/22 08:12:54;;;;;;;7.28;1.88;;;;;;;;;;5021301;28;20267;-70
2021/05/22 08:15:19;;;;;;;6.55;2.05;;;;;;;;;;5013975;28;20178;-70
2021/05/22 08:17:45;;;;;;;5.85;2.22;;;;;;;;;;5019856;28;20707;-71
2021/05/22 08:20:11;;;;;;;10.00;2.35;;;;;;;;;;5021776;28;20182;-69
2021/05/22 08:22:38;;;;;;;7.05;1.73;;;;;;;;;;5013695;28;20202;-69
2021/05/22 08:25:06;;;;;;;5.88;2.42;;;;;;;;;;5020269;28;20197;-70
2021/05/22 08:27:32;;;;;;;6.93;2.20;;;;;;;;;;5012622;28;20566;-70
2021/05/22 08:29:57;;;;;;;5.65;1.77;;;;;;;;;;5024017;28;20185;-69
2021/05/22 08:32:24;;;;;;;9.75;2.58;;;;;;;;;;5012736;28;20190;-69
2021/05/22 08:34:50;;;;;;;8.95;2.75;;;;;;;;;;5028026;28;20204;-70
2021/05/22 08:37:19;;;;;;;5.78;2.08;;;;;;;;;;5016873;28;20198;-70
2021/05/22 08:39:44;;;;;;;5.05;2.05;;;;;;;;;;5025739;28;20230;-71
2021/05/22 08:42:14;;;;;;;7.45;2.13;;;;;;;;;;5018738;28;20272;-70
2021/05/22 08:44:41;;;;;;;7.63;1.90;;;;;;;;;;5026993;28;20225;-72
2021/05/22 08:47:07;;;;;;;5.95;1.92;;;;;;;;;;5016359;28;21710;-67
2021/05/22 08:49:40;;;;;;;4.40;2.08;;;;;;;;;;5026158;28;20217;-68
2021/05/22 08:52:08;;;;;;;7.05;1.60;;;;;;;;;;5019824;28;20230;-70
2021/05/22 08:54:33;;;;;;;3.70;1.90;;;;;;;;;;5026686;28;20200;-70
2021/05/22 08:56:59;;;;;;;6.18;1.80;;;;;;;;;;5025260;28;20194;-69
2021/05/22 08:59:25;;;;;;;6.65;1.83;;;;;;;;;;5014810;28;20296;-68
2021/05/22 09:01:50;;;;;;;6.43;1.92;;;;;;;;;;5023101;28;20213;-72
2021/05/22 09:04:15;;;;;;;6.65;1.88;;;;;;;;;;5015062;28;20657;-68
2021/05/22 09:07:03;;;;;;;6.05;1.90;;;;;;;;;;5023111;28;20300;-72
2021/05/22 09:09:42;;;;;;;5.07;2.28;;;;;;;;;;5017685;28;22795;-71
2021/05/22 09:12:08;;;;;;;4.25;1.80;;;;;;;;;;5021686;28;20217;-71
2021/05/22 09:14:48;;;;;;;5.50;1.80;;;;;;;;;;5017938;28;20823;-72
2021/05/22 09:17:14;;;;;;;4.28;1.58;;;;;;;;;;5025679;28;20194;-69
2021/05/22 09:19:41;;;;;;;6.90;1.65;;;;;;;;;;5019379;28;20255;-70
2021/05/22 09:22:20;;;;;;;4.60;1.90;;;;;;;;;;5025246;28;20186;-69
2021/05/22 09:24:59;;;;;;;4.43;1.65;;;;;;;;;;5015146;28;20547;-70
2021/05/22 09:27:30;;;;;;;7.05;1.70;;;;;;;;;;5022687;28;20233;-72
2021/05/22 09:29:55;;;;;;;6.82;1.92;;;;;;;;;;5018218;28;20186;-69
2021/05/22 09:32:21;;;;;;;4.32;1.60;;;;;;;;;;5026988;28;20190;-71
2021/05/22 09:34:48;;;;;;;5.78;1.63;;;;;;;;;;5017510;28;20198;-71
2021/05/22 09:37:16;;;;;;;3.35;1.48;;;;;;;;;;5021564;28;20696;-68
2021/05/22 09:39:49;;;;;;;4.35;1.42;;;;;;;;;;5017542;28;20607;-70
2021/05/22 09:42:22;;;;;;;5.75;1.70;;;;;;;;;;5021389;28;20189;-70
2021/05/22 09:44:49;;;;;;;5.03;1.85;;;;;;;;;;5017962;28;20182;-71
2021/05/22 09:47:14;;;;;;;3.10;2.20;;;;;;;;;;5020037;28;20675;-70
2021/05/22 09:49:40;;;;;;;3.63;1.60;;;;;;;;;;5024988;28;20190;-70
2021/05/22 09:52:10;;;;;;;4.65;1.90;;;;;;;;;;5020692;28;20652;-71
2021/05/22 09:54:53;;;;;;;3.83;1.90;;;;;;;;;;5029805;28;20622;-69
2021/05/22 09:57:21;;;;;;;4.28;1.85;;;;;;;;;;5012942;28;20582;-70
2021/05/22 10:00:27;;;;;;;3.75;1.73;;;;;;;;;;5027781;28;20202;-70
2021/05/22 10:03:04;;;;;;;5.43;2.15;;;;;;;;;;5011208;28;20226;-70
2021/05/22 10:05:33;;;;;;;2.33;1.98;;;;;;;;;;5025970;28;20221;-70
2021/05/22 10:08:00;;;;;;;3.75;1.98;;;;;;;;;;5018963;28;20190;-68
2021/05/22 10:10:46;;;;;;;2.35;1.88;;;;;;;;;;5026195;28;20212;-70
2021/05/22 10:13:13;;;;;;;4.35;1.73;;;;;;;;;;5020453;28;20189;-70
2021/05/22 10:15:38;;;;;;;3.60;1.90;;;;;;;;;;5026021;28;20197;-69
2021/05/22 10:18:05;;;;;;;5.97;2.15;;;;;;;;;;5017596;28;20218;-73
2021/05/22 10:20:31;;;;;;;4.63;1.80;;;;;;;;;;5027678;28;20610;-68
2021/05/22 10:22:57;;;;;;;3.13;1.85;;;;;;;;;;5020007;28;20204;-68
2021/05/22 10:25:23;;;;;;;2.40;1.83;;;;;;;;;;5025963;28;20300;-72
2021/05/22 10:27:48;;;;;;;3.35;2.38;;;;;;;;;;5019742;28;20206;-70
2021/05/22 10:30:16;;;;;;;4.97;2.20;;;;;;;;;;5029861;28;20524;-71
2021/05/22 10:32:42;;;;;;;3.88;1.95;;;;;;;;;;5019812;28;20193;-71
2021/05/22 10:35:15;;;;;;;5.75;2.45;;;;;;;;;;5026301;28;20193;-74
2021/05/22 10:37:46;;;;;;;5.55;1.90;;;;;;;;;;5021800;28;20216;-71
2021/05/22 10:40:15;;;;;;;3.95;2.00;;;;;;;;;;5024657;28;20186;-70
2021/05/22 10:42:46;;;;;;;4.05;2.30;;;;;;;;;;5025610;28;20654;-70
2021/05/22 10:45:42;;;;;;;3.83;1.95;;;;;;;;;;5015363;28;20190;-66
2021/05/22 10:48:16;;;;;;;4.88;2.00;;;;;;;;;;5026471;28;20295;-72
2021/05/22 10:50:48;;;;;;;3.58;1.90;;;;;;;;;;5025739;28;20285;-72
2021/05/22 10:53:36;;;;;;;5.82;2.08;;;;;;;;;;5028369;28;20202;-70
2021/05/22 10:56:18;;;;;;;3.25;1.70;;;;;;;;;;5022778;28;20627;-71
2021/05/22 10:58:59;;;;;;;3.00;1.83;;;;;;;;;;5022449;28;20243;-72
2021/05/22 11:01:24;;;;;;;2.85;1.77;;;;;;;;;;5026156;28;21487;-71
2021/05/22 11:04:15;;;;;;;3.53;1.83;;;;;;;;;;5027334;28;20268;-73
2021/05/22 11:06:46;;;;;;;4.55;2.00;;;;;;;;;;5026260;28;20236;-72
2021/05/22 11:09:27;;;;;;;4.95;2.00;;;;;;;;;;5028020;28;20204;-69
2021/05/22 11:11:53;;;;;;;3.30;1.92;;;;;;;;;;5027848;28;20217;-71
2021/05/22 11:14:34;;;;;;;2.95;2.20;;;;;;;;;;5025520;28;20189;-69
2021/05/22 11:17:00;;;;;;;3.60;2.10;;;;;;;;;;5018924;28;20198;-70
2021/05/22 11:19:25;;;;;;;6.32;2.67;;;;;;;;;;5025793;28;20258;-69
2021/05/22 11:22:13;;;;;;;5.35;2.97;;;;;;;;;;5018347;28;20190;-71
2021/05/22 11:24:58;;;;;;;6.38;3.70;;;;;;;;;;5026536;28;20238;-70
2021/05/22 11:28:02;;;;;;;5.82;3.40;;;;;;;;;;5017802;28;20569;-72
2021/05/22 11:30:31;;;;;;;7.68;4.20;;;;;;;;;;5021562;28;20225;-72
2021/05/22 11:33:01;;;;;;;7.03;4.47;;;;;;;;;;5026429;28;20197;-72
2021/05/22 11:35:34;;;;;;;7.68;4.30;;;;;;;;;;5027633;28;20196;-73
2021/05/22 11:38:14;;;;;;;7.25;4.35;;;;;;;;;;5018812;28;20186;-72
2021/05/22 11:40:39;;;;;;;6.22;4.93;;;;;;;;;;5029936;28;20606;-72
2021/05/22 11:43:14;;;;;;;8.07;4.90;;;;;;;;;;5017281;28;20241;-70
2021/05/22 11:45:44;;;;;;;7.72;4.80;;;;;;;;;;5026061;28;20193;-69
2021/05/22 11:48:47;;;;;;;6.85;4.78;;;;;;;;;;5017874;28;20257;-68
2021/05/22 11:51:18;;;;;;;4.93;4.30;;;;;;;;;;5024314;28;20201;-71
2021/05/22 11:53:49;;;;;;;6.70;4.97;;;;;;;;;;5019694;28;20192;-70
2021/05/22 11:56:16;;;;;;;8.52;4.95;;;;;;;;;;5026423;28;20189;-69
2021/05/22 11:58:43;;;;;;;5.80;5.00;;;;;;;;;;5019768;28;20325;-71
2021/05/22 12:01:11;;;;;;;6.47;4.97;;;;;;;;;;5026322;28;20570;-69
2021/05/22 12:03:37;;;;;;;6.25;4.65;;;;;;;;;;5014096;28;20193;-71
2021/05/22 12:06:07;;;;;;;8.40;4.55;;;;;;;;;;5025702;28;20201;-71
2021/05/22 12:08:33;;;;;;;7.10;4.72;;;;;;;;;;5020853;28;20182;-74
2021/05/22 12:11:09;;;;;;;6.22;4.80;;;;;;;;;;5027453;28;20212;-72
2021/05/22 12:13:54;;;;;;;8.50;4.80;;;;;;;;;;5022567;28;20209;-71
2021/05/22 12:16:20;;;;;;;4.70;4.30;;;;;;;;;;5029396;28;20189;-70
2021/05/22 12:18:45;;;;;;;5.20;4.30;;;;;;;;;;5023441;28;20216;-70
2021/05/22 12:21:20;;;;;;;4.90;3.78;;;;;;;;;;5027888;28;20217;-71
2021/05/22 12:23:46;;;;;;;7.28;5.82;;;;;;;;;;5022049;28;20327;-70
2021/05/22 12:26:11;;;;;;;5.82;4.53;;;;;;;;;;5026275;28;20369;-71
2021/05/22 12:28:36;;;;;;;5.55;4.38;;;;;;;;;;5021288;28;20178;-71
2021/05/22 12:31:02;;;;;;;3.80;3.45;;;;;;;;;;5029910;28;20755;-72
2021/05/22 12:33:28;;;;;;;6.00;3.92;;;;;;;;;;5029855;28;20188;-71
2021/05/22 12:36:08;;;;;;;4.10;3.50;;;;;;;;;;5022398;28;20330;-69
2021/05/22 12:38:45;;;;;;;4.20;3.80;;;;;;;;;;5032144;28;20201;-70
2021/05/22 12:41:11;;;;;;;3.90;3.47;;;;;;;;;;5022139;28;20192;-70
2021/05/22 12:43:41;;;;;;;4.53;3.58;;;;;;;;;;5031693;28;20235;-69
2021/05/22 12:46:10;;;;;;;4.03;3.72;;;;;;;;;;5022714;28;20217;-69
2021/05/22 12:48:36;;;;;;;4.18;3.45;;;;;;;;;;5028243;28;20232;-67
2021/05/22 12:51:21;;;;;;;4.38;3.60;;;;;;;;;;5019087;28;20697;-71
2021/05/22 12:53:47;;;;;;;3.40;3.08;;;;;;;;;;5029501;28;22732;-68
2021/05/22 12:56:12;;;;;;;4.10;3.20;;;;;;;;;;5023661;28;20196;-67
2021/05/22 12:58:38;;;;;;;4.07;3.20;;;;;;;;;;5035408;28;20220;-68
2021/05/22 13:01:18;;;;;;;3.63;3.20;;;;;;;;;;5025259;28;20218;-68
2021/05/22 13:03:48;;;;;;;4.00;3.63;;;;;;;;;;5029222;28;20220;-70
2021/05/22 13:06:28;;;;;;;3.50;3.20;;;;;;;;;;5022668;28;20190;-72
2021/05/22 13:08:53;;;;;;;3.13;2.92;;;;;;;;;;5030334;28;20216;-70
2021/05/22 13:11:19;;;;;;;4.53;3.13;;;;;;;;;;5021808;28;20652;-69
2021/05/22 13:13:45;;;;;;;5.97;3.58;;;;;;;;;;5030742;28;20284;-67
2021/05/22 13:16:12;;;;;;;4.53;3.10;;;;;;;;;;5023910;28;20369;-70
2021/05/22 13:18:39;;;;;;;3.90;2.78;;;;;;;;;;5029863;28;20193;-70
2021/05/22 13:21:08;;;;;;;3.97;2.55;;;;;;;;;;5018971;28;20642;-68
2021/05/22 13:23:40;;;;;;;3.67;2.92;;;;;;;;;;5028125;28;20311;-70
2021/05/22 13:26:21;;;;;;;6.95;3.08;;;;;;;;;;5032920;28;20177;-66
2021/05/22 13:28:48;;;;;;;7.38;3.45;;;;;;;;;;5028536;28;20556;-68
2021/05/22 13:31:16;;;;;;;3.85;2.60;;;;;;;;;;5030003;28;20288;-69
2021/05/22 13:33:49;;;;;;;6.93;3.20;;;;;;;;;;5021265;28;20197;-67
2021/05/22 13:36:17;;;;;;;8.30;2.92;;;;;;;;;;5029480;28;20261;-68
2021/05/22 13:38:43;;;;;;;7.93;3.03;;;;;;;;;;5021906;28;20300;-68
2021/05/22 13:41:08;;;;;;;5.55;2.40;;;;;;;;;;5028772;28;20260;-69
2021/05/22 13:43:34;;;;;;;7.72;2.08;;;;;;;;;;5021114;28;20296;-69
2021/05/22 13:46:00;;;;;;;10.55;2.47;;;;;;;;;;5033620;28;20245;-68
2021/05/22 13:48:25;;;;;;;4.18;1.92;;;;;;;;;;5022962;28;20682;-67
2021/05/22 13:50:53;;;;;;;8.52;2.92;;;;;;;;;;5030349;28;20192;-68
2021/05/22 13:53:18;;;;;;;8.15;2.58;;;;;;;;;;5022656;28;20196;-68
2021/05/22 13:55:44;;;;;;;7.30;2.33;;;;;;;;;;5030105;28;20602;-68
2021/05/22 13:58:13;;;;;;;6.35;2.20;;;;;;;;;;5019471;28;20790;-69
2021/05/22 14:00:40;;;;;;;8.88;2.13;;;;;;;;;;5028941;28;20182;-68
2021/05/22 14:03:05;;;;;;;6.30;1.88;;;;;;;;;;5027503;28;20739;-69
2021/05/22 14:05:31;;;;;;;9.57;1.85;;;;;;;;;;5020724;28;20182;-68
2021/05/22 14:07:57;;;;;;;6.20;2.50;;;;;;;;;;5028313;28;20224;-68
2021/05/22 14:10:22;;;;;;;6.25;2.17;;;;;;;;;;5021572;28;20197;-68
2021/05/22 14:12:48;;;;;;;4.20;2.15;;;;;;;;;;5029745;28;21240;-68
2021/05/22 14:15:14;;;;;;;4.72;1.75;;;;;;;;;;5019908;28;20193;-69
2021/05/22 14:17:40;;;;;;;8.43;2.33;;;;;;;;;;5031914;28;20181;-68
2021/05/22 14:20:07;;;;;;;4.05;1.88;;;;;;;;;;5017759;28;20675;-67
2021/05/22 14:22:33;;;;;;;5.80;1.63;;;;;;;;;;5030931;28;20222;-69
2021/05/22 14:25:00;;;;;;;5.63;1.60;;;;;;;;;;5019004;28;20225;-67
2021/05/22 14:27:26;;;;;;;6.10;1.40;;;;;;;;;;5025018;28;20455;-67
2021/05/22 14:29:51;;;;;;;4.70;1.45;;;;;;;;;;5017527;28;20194;-68
2021/05/22 14:32:17;;;;;;;7.75;2.53;;;;;;;;;;5027641;28;20536;-68
2021/05/22 14:34:42;;;;;;;7.88;2.70;;;;;;;;;;5029791;28;20550;-67
2021/05/22 14:37:07;;;;;;;9.85;3.00;;;;;;;;;;5019452;28;20244;-68
2021/05/22 14:39:33;;;;;;;7.00;3.17;;;;;;;;;;5027061;28;20201;-68
2021/05/22 14:41:58;;;;;;;10.35;2.95;;;;;;;;;;5017959;28;20186;-69
2021/05/22 14:44:23;;;;;;;7.28;2.20;;;;;;;;;;5026341;28;20836;-68
2021/05/22 14:46:49;;;;;;;9.98;3.72;;;;;;;;;;5019402;28;20193;-67
2021/05/22 14:49:14;;;;;;;9.55;3.20;;;;;;;;;;5026892;28;20240;-70